Time;durP1;ratioP1;P1;durP2;ratioP2;P2;SDS_P1;SDS_P2;PMS_P1;PMS_P2;Temp;Humidity;BMP_temperature;BMP_pressure;BME280_temperature;BME280_humidity;BME280_pressure;Samples;Min_cycle;Max_cycle;Signal;HPM_P1;HPM_P2
2023/04/13 00:00:12;;;;;;;3.10;2.17;;;;;;;3.21;37.82;96914.25;6292327;28;20044;-61
2023/04/13 00:03:15;;;;;;;3.78;2.20;;;;;;;3.03;38.03;96903.59;6286963;28;20052;-62
2023/04/13 00:06:21;;;;;;;2.88;1.75;;;;;;;2.95;38.26;96905.59;6292605;28;20060;-61
2023/04/13 00:09:25;;;;;;;4.70;2.33;;;;;;;2.86;38.25;96903.28;6292949;28;20871;-61
2023/04/13 00:12:26;;;;;;;2.92;2.00;;;;;;;2.82;38.17;96904.31;6291546;28;20127;-61
2023/04/13 00:15:33;;;;;;;3.67;2.10;;;;;;;2.78;38.45;96897.53;6291285;28;20048;-62
2023/04/13 00:18:36;;;;;;;6.18;2.40;;;;;;;2.81;38.29;96882.69;6291754;28;20549;-61
2023/04/13 00:21:40;;;;;;;6.00;2.90;;;;;;;2.79;38.85;96881.03;6290004;28;20059;-60
2023/04/13 00:24:48;;;;;;;15.52;3.42;;;;;;;2.74;39.55;96882.94;6290671;28;20589;-62
2023/04/13 00:27:52;;;;;;;15.05;3.85;;;;;;;2.65;39.63;96882.34;6292638;28;20045;-62
2023/04/13 00:30:54;;;;;;;13.68;3.42;;;;;;;2.55;39.15;96885.28;6275932;28;20151;-61
2023/04/13 00:33:55;;;;;;;6.15;3.03;;;;;;;2.42;39.72;96879.66;6291770;28;20052;-61
2023/04/13 00:37:01;;;;;;;10.70;3.00;;;;;;;2.31;40.22;96876.56;6291591;28;20418;-62
2023/04/13 00:40:04;;;;;;;4.57;2.33;;;;;;;2.21;40.35;96895.03;6292532;28;20033;-61
2023/04/13 00:43:06;;;;;;;4.35;2.88;;;;;;;2.27;39.61;96881.00;6289781;28;20044;-61
2023/04/13 00:46:07;;;;;;;6.95;3.00;;;;;;;2.43;39.19;96892.56;6289268;28;20048;-60
2023/04/13 00:49:11;;;;;;;3.08;2.50;;;;;;;2.42;39.60;96895.22;6292416;28;20063;-61
2023/04/13 00:52:15;;;;;;;7.78;3.17;;;;;;;2.40;39.52;96902.22;6288343;28;20045;-60
2023/04/13 00:55:20;;;;;;;6.70;3.40;;;;;;;2.43;39.67;96904.72;6290996;28;20053;-63
2023/04/13 00:58:21;;;;;;;9.48;5.13;;;;;;;2.60;39.19;96910.19;6292454;28;20032;-61
2023/04/13 01:01:22;;;;;;;19.00;8.48;;;;;;;2.91;38.02;96906.59;6290059;28;20051;-61
2023/04/13 01:04:29;;;;;;;37.42;17.73;;;;;;;3.04;37.80;96904.44;6293054;28;20037;-61
2023/04/13 01:07:40;;;;;;;9.18;5.25;;;;;;;3.18;37.11;96906.56;6291597;28;20407;-61
2023/04/13 01:10:59;;;;;;;6.18;4.20;;;;;;;3.19;37.17;96903.06;6290313;28;20049;-61
2023/04/13 01:14:20;;;;;;;7.05;4.15;;;;;;;3.00;37.72;96903.69;6290467;28;20056;-61
2023/04/13 01:17:29;;;;;;;4.13;2.95;;;;;;;2.84;37.72;96907.72;6295783;28;20422;-61
2023/04/13 01:20:34;;;;;;;7.05;3.03;;;;;;;2.87;38.11;96907.59;6296251;28;20032;-62
2023/04/13 01:23:55;;;;;;;7.28;3.60;;;;;;;2.84;38.40;96907.72;6297317;28;20490;-61
2023/04/13 01:27:10;;;;;;;11.45;4.68;;;;;;;2.74;38.47;96916.72;6297173;28;20055;-62
2023/04/13 01:30:17;;;;;;;14.50;5.75;;;;;;;2.65;38.52;96907.47;6287886;28;20417;-61
2023/04/13 01:33:19;;;;;;;18.20;5.93;;;;;;;2.58;39.25;96906.00;6287180;28;20136;-60
2023/04/13 01:36:21;;;;;;;21.75;5.43;;;;;;;2.54;39.47;96901.78;6281644;28;20056;-63
2023/04/13 01:39:31;;;;;;;20.38;6.53;;;;;;;2.58;39.32;96906.00;6295711;28;20044;-61
2023/04/13 01:42:37;;;;;;;17.98;6.10;;;;;;;2.56;39.94;96898.22;6296716;28;20052;-62
2023/04/13 01:46:12;;;;;;;24.67;7.43;;;;;;;2.49;40.46;96901.91;6292695;28;20048;-60
2023/04/13 01:49:18;;;;;;;34.67;9.70;;;;;;;2.40;40.40;96913.44;6278843;28;20056;-62
2023/04/13 01:52:29;;;;;;;21.52;6.13;;;;;;;2.35;40.36;96909.28;6296010;28;20040;-62
2023/04/13 01:55:31;;;;;;;18.30;6.28;;;;;;;2.34;40.72;96905.00;6294254;28;20150;-62
2023/04/13 01:58:35;;;;;;;15.57;5.47;;;;;;;2.31;40.25;96905.13;6290979;28;20048;-63
2023/04/13 02:01:37;;;;;;;13.20;5.70;;;;;;;2.28;40.35;96907.81;6293460;28;20567;-61
2023/04/13 02:04:39;;;;;;;27.80;10.05;;;;;;;2.31;40.49;96902.50;6294117;28;20521;-62
2023/04/13 02:07:45;;;;;;;13.95;7.50;;;;;;;2.33;40.63;96900.72;6296608;28;20921;-63
2023/04/13 02:10:47;;;;;;;16.55;5.90;;;;;;;2.36;40.18;96900.63;6293117;28;20037;-62
2023/04/13 02:13:52;;;;;;;16.45;6.65;;;;;;;2.44;40.43;96906.44;6293902;28;20055;-62
2023/04/13 02:17:14;;;;;;;17.92;6.75;;;;;;;2.48;40.21;96911.47;6293266;28;20421;-62
2023/04/13 02:20:18;;;;;;;10.02;5.30;;;;;;;2.55;40.19;96901.75;6294678;28;20053;-62
2023/04/13 02:23:20;;;;;;;16.75;6.65;;;;;;;2.60;40.09;96905.00;6289959;28;20032;-62
2023/04/13 02:26:27;;;;;;;17.92;6.95;;;;;;;2.65;40.12;96897.91;6293829;28;20533;-61
2023/04/13 02:29:31;;;;;;;25.45;6.93;;;;;;;2.79;40.15;96910.47;6283321;28;20495;-61
2023/04/13 02:32:38;;;;;;;24.65;7.90;;;;;;;2.85;39.91;96899.84;6291047;28;20048;-61
2023/04/13 02:35:39;;;;;;;26.05;7.68;;;;;;;3.00;39.95;96908.91;6293965;28;20502;-62
2023/04/13 02:38:46;;;;;;;26.45;7.78;;;;;;;3.10;39.89;96905.06;6293232;28;20043;-62
2023/04/13 02:41:50;;;;;;;25.25;8.13;;;;;;;3.24;39.72;96899.38;6290245;28;20060;-61
2023/04/13 02:44:51;;;;;;;29.65;7.82;;;;;;;3.33;39.61;96885.19;6286357;28;20067;-61
2023/04/13 02:47:56;;;;;;;31.15;8.50;;;;;;;3.48;39.35;96894.19;6293797;28;20045;-62
2023/04/13 02:50:57;;;;;;;29.73;7.88;;;;;;;3.62;39.19;96912.75;6294211;28;20498;-62
2023/04/13 02:54:01;;;;;;;30.25;9.25;;;;;;;3.77;38.74;96906.16;6294305;28;20059;-62
2023/04/13 02:57:03;;;;;;;17.77;7.53;;;;;;;3.90;38.67;96904.78;6292071;28;20051;-61
2023/04/13 03:00:10;;;;;;;35.28;9.18;;;;;;;4.07;38.42;96893.72;6289440;28;20045;-61
2023/04/13 03:03:11;;;;;;;25.52;8.27;;;;;;;4.21;37.92;96886.22;6292803;28;20047;-62
2023/04/13 03:06:13;;;;;;;24.17;8.23;;;;;;;4.37;37.84;96891.69;6292115;28;20048;-62
2023/04/13 03:09:17;;;;;;;20.02;8.15;;;;;;;4.52;37.55;96894.56;6294391;28;20133;-61
2023/04/13 03:12:19;;;;;;;27.25;9.85;;;;;;;4.67;37.50;96900.03;6293191;28;20556;-60
2023/04/13 03:15:22;;;;;;;37.88;9.15;;;;;;;4.81;37.40;96896.84;6289974;28;20044;-61
2023/04/13 03:18:26;;;;;;;26.48;8.68;;;;;;;4.93;37.43;96891.13;6292218;28;20059;-62
2023/04/13 03:21:27;;;;;;;29.15;9.65;;;;;;;5.05;37.32;96900.16;6289438;28;20044;-63
2023/04/13 03:24:29;;;;;;;20.85;6.63;;;;;;;5.21;36.58;96894.28;6290040;28;20044;-62
2023/04/13 03:27:31;;;;;;;39.78;15.07;;;;;;;5.37;36.46;96908.38;6292336;28;20675;-61
2023/04/13 03:30:32;;;;;;;32.65;10.05;;;;;;;5.48;36.16;96892.25;6291504;28;20044;-61
2023/04/13 03:33:36;;;;;;;23.98;8.23;;;;;;;5.63;36.25;96897.66;6293739;28;20776;-62
2023/04/13 03:36:40;;;;;;;19.60;6.30;;;;;;;5.87;35.47;96894.00;6293049;28;20044;-60
2023/04/13 03:39:44;;;;;;;26.38;5.82;;;;;;;6.22;35.27;96894.97;6292419;28;20051;-61
2023/04/13 03:42:45;;;;;;;23.70;5.40;;;;;;;6.45;34.67;96881.66;6293381;28;20470;-63
2023/04/13 03:45:47;;;;;;;13.20;4.28;;;;;;;6.72;34.46;96884.72;6288925;28;20080;-61
2023/04/13 03:48:51;;;;;;;10.50;4.25;;;;;;;6.88;34.16;96869.13;6291906;28;20087;-62
2023/04/13 03:51:52;;;;;;;14.82;5.45;;;;;;;7.10;33.51;96874.09;6289833;28;20190;-62
2023/04/13 03:54:56;;;;;;;14.63;7.00;;;;;;;7.24;33.25;96875.16;6291878;28;20135;-61
2023/04/13 03:57:58;;;;;;;12.73;5.10;;;;;;;7.56;32.89;96871.72;6291759;28;20052;-60
2023/04/13 04:00:59;;;;;;;18.65;6.57;;;;;;;7.87;32.34;96875.31;6291670;28;20040;-61
2023/04/13 04:04:01;;;;;;;21.73;7.43;;;;;;;8.12;32.44;96869.56;6292813;28;20048;-62
2023/04/13 04:07:10;;;;;;;16.48;7.07;;;;;;;8.50;31.13;96870.09;6292006;28;20040;-61
2023/04/13 04:10:11;;;;;;;13.90;6.78;;;;;;;8.90;30.01;96859.94;6291145;28;20173;-62
2023/04/13 04:13:18;;;;;;;9.52;5.45;;;;;;;9.28;29.01;96862.06;6292305;28;20041;-61
2023/04/13 04:16:21;;;;;;;7.65;4.60;;;;;;;9.50;28.60;96868.66;6290678;28;20048;-61
2023/04/13 04:19:25;;;;;;;8.05;3.53;;;;;;;9.76;27.54;96862.66;6292573;28;20036;-61
2023/04/13 04:22:33;;;;;;;4.82;2.60;;;;;;;9.96;27.07;96868.47;6290766;28;20549;-61
2023/04/13 04:25:38;;;;;;;4.20;2.03;;;;;;;10.37;25.60;96865.03;6290071;28;20055;-61
2023/04/13 04:28:39;;;;;;;6.90;2.13;;;;;;;10.44;25.87;96863.69;6292043;28;20194;-61
2023/04/13 04:31:43;;;;;;;5.78;3.15;;;;;;;10.70;25.29;96868.13;6288334;28;20044;-61
2023/04/13 04:34:45;;;;;;;5.30;3.70;;;;;;;10.90;24.84;96877.34;6288292;28;20093;-62
2023/04/13 04:37:48;;;;;;;8.75;3.70;;;;;;;11.28;24.34;96870.44;6290309;28;20422;-61
2023/04/13 04:40:56;;;;;;;5.07;3.10;;;;;;;11.46;23.97;96870.06;6276154;28;20128;-61
2023/04/13 04:44:01;;;;;;;3.30;2.45;;;;;;;11.71;23.58;96883.31;6286655;28;20098;-62
2023/04/13 04:47:03;;;;;;;4.15;2.35;;;;;;;11.89;23.37;96871.53;6288807;28;20044;-61
2023/04/13 04:50:08;;;;;;;4.97;2.53;;;;;;;12.03;23.50;96863.50;6291655;28;20049;-61
2023/04/13 04:53:12;;;;;;;6.93;2.92;;;;;;;12.41;23.12;96873.09;6290367;28;20402;-63
2023/04/13 04:56:16;;;;;;;3.00;2.20;;;;;;;12.79;22.59;96867.66;6297381;28;20498;-62
2023/04/13 04:59:18;;;;;;;2.58;2.03;;;;;;;13.09;22.30;96862.84;6297539;28;20486;-60
2023/04/13 05:02:22;;;;;;;3.95;1.85;;;;;;;13.32;22.19;96863.78;6296996;28;20047;-61
2023/04/13 05:05:24;;;;;;;1.88;1.67;;;;;;;13.70;21.61;96864.31;6296384;28;20044;-61
2023/04/13 05:08:28;;;;;;;;;;;;;;;14.17;20.90;96863.34;6297063;28;20421;-61
2023/04/13 05:11:32;;;;;;;3.17;2.28;;;;;;;14.21;21.01;96868.28;6296705;28;20058;-61
2023/04/13 05:14:37;;;;;;;2.38;1.80;;;;;;;14.45;20.67;96867.28;6297209;28;20567;-61
2023/04/13 05:17:40;;;;;;;4.05;1.90;;;;;;;14.89;19.77;96874.28;6296612;28;20063;-62
2023/04/13 05:20:41;;;;;;;5.90;1.90;;;;;;;15.50;19.67;96868.31;6297193;28;20056;-62
2023/04/13 05:23:45;;;;;;;;;;;;;;;18.65;17.32;96885.81;6295626;28;20036;-61
2023/04/13 05:26:46;;;;;;;2.65;1.65;;;;;;;21.52;15.06;96897.22;6295898;28;19920;-70
2023/04/13 05:29:53;;;;;;;3.63;1.58;;;;;;;24.13;13.33;96877.31;6291410;28;20663;-67
2023/04/13 05:32:54;;;;;;;1.65;1.20;;;;;;;26.36;12.26;96885.50;6289008;28;20055;-70
2023/04/13 05:36:04;;;;;;;1.42;1.33;;;;;;;27.08;11.34;96876.06;6296861;28;20513;-69
2023/04/13 05:39:10;;;;;;;2.28;1.20;;;;;;;27.74;10.17;96876.19;6296046;28;20040;-77
2023/04/13 05:42:14;;;;;;;1.63;1.17;;;;;;;28.48;9.67;96874.28;6313223;28;20045;-79
2023/04/13 05:45:21;;;;;;;2.15;1.60;;;;;;;28.60;9.67;96883.41;6296827;28;20040;-80
2023/04/13 05:48:31;;;;;;;4.22;2.20;;;;;;;29.38;8.78;96873.47;6296703;28;20449;-76
2023/04/13 05:51:38;;;;;;;2.92;1.30;;;;;;;30.14;8.90;96877.88;6297384;28;20571;-78
2023/04/13 05:54:46;;;;;;;2.20;1.08;;;;;;;31.78;8.00;96872.53;6294827;28;20036;-78
2023/04/13 05:58:17;;;;;;;2.60;1.10;;;;;;;32.79;8.22;96875.97;6295239;28;20421;-77
2023/04/13 06:01:28;;;;;;;3.83;1.23;;;;;;;32.64;7.25;96860.16;6291113;28;20482;-79
2023/04/13 06:04:33;;;;;;;2.72;1.25;;;;;;;32.67;7.38;96855.25;6290135;28;20246;-80
2023/04/13 06:07:43;;;;;;;1.92;1.02;;;;;;;33.16;7.30;96866.66;6290921;28;20557;-79
2023/04/13 06:10:50;;;;;;;2.20;1.08;;;;;;;32.97;6.87;96858.59;6286020;28;20518;-79
2023/04/13 06:13:54;;;;;;;1.58;0.68;;;;;;;32.76;7.49;96867.47;6291591;28;20261;-79
2023/04/13 06:16:58;;;;;;;1.85;0.88;;;;;;;31.58;7.53;96829.31;6291929;28;20505;-77
2023/04/13 06:20:06;;;;;;;3.72;1.58;;;;;;;32.24;7.38;96861.94;6289223;28;20032;-77
2023/04/13 06:23:09;;;;;;;2.38;1.10;;;;;;;32.41;7.43;96862.84;6288577;28;20049;-76
2023/04/13 06:26:19;;;;;;;3.47;0.95;;;;;;;31.64;7.59;96866.47;6290238;28;20493;-77
2023/04/13 06:29:26;;;;;;;2.75;0.90;;;;;;;31.54;7.86;96849.91;6288323;28;20040;-76
2023/04/13 06:32:28;;;;;;;1.90;0.70;;;;;;;32.22;7.74;96845.03;6291720;28;20414;-78
2023/04/13 06:35:37;;;;;;;3.83;2.22;;;;;;;33.72;6.85;96848.59;6292423;28;20040;-77
2023/04/13 06:38:46;;;;;;;4.78;2.75;;;;;;;34.60;6.59;96843.38;6292625;28;20510;-77
2023/04/13 06:41:56;;;;;;;2.67;1.08;;;;;;;35.80;6.04;96842.50;6294655;28;20113;-76
2023/04/13 06:45:03;;;;;;;1.40;1.15;;;;;;;36.07;6.12;96826.84;6292544;28;20094;-76
2023/04/13 06:48:10;;;;;;;7.43;0.95;;;;;;;36.24;5.67;96831.34;6287878;28;21020;-77
2023/04/13 06:51:17;;;;;;;1.30;0.82;;;;;;;36.44;5.67;96828.72;6290333;28;20039;-73
2023/04/13 06:54:34;;;;;;;1.77;0.90;;;;;;;37.33;5.53;96829.63;6287880;28;20135;-73
2023/04/13 06:57:40;;;;;;;1.60;0.98;;;;;;;37.58;5.45;96822.53;6285753;28;20166;-73
2023/04/13 07:00:48;;;;;;;1.70;1.02;;;;;;;37.27;5.32;96808.75;6286115;28;20410;-72
2023/04/13 07:03:50;;;;;;;3.45;1.10;;;;;;;37.51;5.42;96803.59;6287074;28;20087;-74
2023/04/13 07:06:53;;;;;;;1.67;0.65;;;;;;;36.97;5.59;96804.00;6289575;28;20101;-74
2023/04/13 07:10:02;;;;;;;0.85;0.60;;;;;;;36.78;6.24;96806.41;6290053;28;20083;-74
2023/04/13 07:13:09;;;;;;;2.25;0.73;;;;;;;37.32;6.28;96792.31;6291710;28;20044;-72
2023/04/13 07:16:13;;;;;;;3.25;1.23;;;;;;;38.17;5.38;96795.31;6289436;28;20055;-79
2023/04/13 07:19:22;;;;;;;2.97;1.35;;;;;;;38.25;5.89;96790.38;6286953;28;20502;-78
2023/04/13 07:22:35;;;;;;;2.67;1.50;;;;;;;39.23;5.31;96795.16;6285642;28;20036;-80
2023/04/13 07:25:40;;;;;;;3.13;1.67;;;;;;;39.05;5.46;96793.09;6287049;28;20473;-76
2023/04/13 07:28:47;;;;;;;1.00;0.70;;;;;;;38.67;5.50;96772.63;6288831;28;20048;-76
2023/04/13 07:31:49;;;;;;;3.60;1.45;;;;;;;37.95;6.05;96773.66;6291527;28;20459;-76
2023/04/13 07:34:58;;;;;;;3.75;1.50;;;;;;;36.18;6.19;96762.84;6286372;28;20047;-76
2023/04/13 07:38:05;;;;;;;1.67;1.10;;;;;;;36.09;6.78;96753.44;6287543;28;20049;-76
2023/04/13 07:41:12;;;;;;;4.03;1.13;;;;;;;35.92;6.80;96750.84;6290666;28;20036;-76
2023/04/13 07:44:18;;;;;;;2.30;1.23;;;;;;;35.73;6.75;96753.22;6291721;28;20036;-76
2023/04/13 07:47:23;;;;;;;1.70;1.17;;;;;;;35.28;6.84;96735.31;6269735;28;20140;-76
2023/04/13 07:50:27;;;;;;;3.67;1.10;;;;;;;35.09;6.97;96748.56;6277806;28;20044;-76
2023/04/13 07:53:31;;;;;;;2.67;1.13;;;;;;;34.40;7.27;96738.19;6290145;28;20509;-76
2023/04/13 07:56:36;;;;;;;1.63;1.23;;;;;;;33.69;7.76;96718.13;6289187;28;20572;-76
2023/04/13 07:59:44;;;;;;;3.35;1.60;;;;;;;33.26;7.95;96725.03;6291656;28;20040;-77
2023/04/13 08:02:50;;;;;;;3.58;1.30;;;;;;;33.41;8.09;96716.28;6291701;28;20041;-77
2023/04/13 08:05:55;;;;;;;3.88;0.88;;;;;;;33.73;7.74;96694.69;6292284;28;20045;-77
2023/04/13 08:09:00;;;;;;;4.60;1.52;;;;;;;33.33;8.08;96717.53;6290963;28;20036;-76
2023/04/13 08:12:02;;;;;;;;;;;;;;;33.47;8.03;96694.28;6291026;28;20070;-76
2023/04/13 08:15:08;;;;;;;1.80;0.90;;;;;;;33.15;8.18;96687.75;6290786;28;19920;-76
2023/04/13 08:18:19;;;;;;;3.45;1.02;;;;;;;34.34;7.93;96691.94;6290415;28;20137;-76
2023/04/13 08:21:31;;;;;;;1.40;1.00;;;;;;;34.69;7.57;96685.25;6287511;28;20045;-76
2023/04/13 08:24:38;;;;;;;3.47;1.35;;;;;;;34.56;7.63;96678.28;6290477;28;20535;-75
2023/04/13 08:27:44;;;;;;;2.40;1.30;;;;;;;35.34;7.27;96672.47;6290416;28;20434;-76
2023/04/13 08:30:51;;;;;;;3.33;0.82;;;;;;;35.52;7.07;96658.34;6285402;28;20465;-77
2023/04/13 08:33:58;;;;;;;1.80;1.25;;;;;;;37.02;6.68;96658.69;6297310;28;20090;-76
2023/04/13 08:37:00;;;;;;;5.43;1.17;;;;;;;36.06;6.96;96657.31;6289228;28;20067;-77
2023/04/13 08:40:10;;;;;;;1.48;1.00;;;;;;;36.77;6.56;96648.47;6291240;28;20045;-77
2023/04/13 08:43:18;;;;;;;2.22;1.05;;;;;;;37.80;6.13;96661.06;6289698;28;20055;-76
2023/04/13 08:46:20;;;;;;;4.70;1.35;;;;;;;36.62;6.79;96649.28;6290523;28;20060;-75
2023/04/13 08:49:26;;;;;;;1.73;0.80;;;;;;;36.01;7.16;96644.41;6285759;28;20735;-76
2023/04/13 08:52:40;;;;;;;1.80;0.73;;;;;;;36.74;6.94;96640.81;6291174;28;20561;-76
2023/04/13 08:55:45;;;;;;;2.42;1.10;;;;;;;36.08;6.68;96638.69;6284216;28;20040;-76
2023/04/13 08:59:02;;;;;;;1.92;0.70;;;;;;;36.66;7.07;96649.56;6288002;28;20072;-75
2023/04/13 09:02:10;;;;;;;2.58;0.90;;;;;;;35.16;7.33;96633.50;6284556;28;20052;-76
2023/04/13 09:05:16;;;;;;;2.45;1.00;;;;;;;34.08;7.66;96623.38;6289524;28;20075;-75
2023/04/13 09:08:18;;;;;;;1.67;1.13;;;;;;;34.79;7.34;96628.78;6287834;28;20056;-76
2023/04/13 09:11:24;;;;;;;1.90;0.82;;;;;;;35.35;7.31;96630.31;6281616;28;20048;-75
2023/04/13 09:14:32;;;;;;;2.63;1.27;;;;;;;34.39;7.90;96607.31;6290151;28;20997;-76
2023/04/13 09:17:37;;;;;;;1.55;0.82;;;;;;;33.87;8.17;96616.81;6291152;28;21077;-75
2023/04/13 09:20:41;;;;;;;2.22;1.02;;;;;;;33.33;8.62;96619.34;6290208;28;20145;-76
2023/04/13 09:23:56;;;;;;;2.22;1.27;;;;;;;33.11;8.68;96624.75;6292008;28;20506;-76
2023/04/13 09:27:01;;;;;;;2.90;1.58;;;;;;;33.29;8.46;96610.84;6285120;28;20601;-76
2023/04/13 09:30:10;;;;;;;4.05;1.42;;;;;;;32.33;8.98;96601.81;6290284;28;20048;-76
2023/04/13 09:33:14;;;;;;;3.03;1.00;;;;;;;32.22;9.06;96589.13;6289856;28;20159;-75
2023/04/13 09:36:21;;;;;;;3.80;1.40;;;;;;;30.57;10.26;96589.22;6291504;28;20040;-75
2023/04/13 09:39:26;;;;;;;1.95;1.00;;;;;;;30.35;10.34;96587.06;6293543;28;20044;-76
2023/04/13 09:42:33;;;;;;;2.47;1.40;;;;;;;31.28;9.99;96596.41;6294013;28;20049;-77
2023/04/13 09:45:44;;;;;;;2.35;1.05;;;;;;;30.31;10.41;96590.47;6288332;28;20057;-76
2023/04/13 09:49:02;;;;;;;4.22;1.50;;;;;;;29.88;11.03;96597.69;6288202;28;20045;-75
2023/04/13 09:52:19;;;;;;;2.60;1.50;;;;;;;29.42;10.94;96599.06;6286697;28;20045;-74
2023/04/13 09:55:26;;;;;;;4.72;1.70;;;;;;;28.19;12.01;96591.50;6294117;28;20056;-75
2023/04/13 09:58:52;;;;;;;1.67;1.10;;;;;;;27.65;11.96;96587.38;6293736;28;20430;-74
2023/04/13 10:01:54;;;;;;;2.20;1.33;;;;;;;28.00;12.12;96582.47;6291464;28;20071;-74
2023/04/13 10:04:56;;;;;;;2.58;1.48;;;;;;;27.83;12.14;96589.41;6293239;28;20426;-74
2023/04/13 10:08:00;;;;;;;3.65;1.98;;;;;;;27.25;12.56;96576.69;6289164;28;20045;-75
2023/04/13 10:11:12;;;;;;;3.78;1.92;;;;;;;26.80;12.66;96580.06;6284648;28;20490;-72
2023/04/13 10:14:17;;;;;;;2.80;1.38;;;;;;;26.37;13.12;96574.22;6290204;28;20188;-74
2023/04/13 10:17:38;;;;;;;3.50;1.80;;;;;;;26.39;13.44;96562.19;6286749;28;20048;-73
2023/04/13 10:21:00;;;;;;;3.00;1.53;;;;;;;26.49;13.62;96566.34;6294130;28;20538;-73
2023/04/13 10:24:11;;;;;;;3.20;1.75;;;;;;;27.01;12.75;96568.22;6292578;28;20781;-74
2023/04/13 10:27:30;;;;;;;2.85;1.50;;;;;;;26.84;13.26;96559.72;6292052;28;20064;-74
2023/04/13 10:30:47;;;;;;;3.58;1.60;;;;;;;26.53;13.26;96552.28;6292219;28;20085;-74
2023/04/13 10:33:50;;;;;;;3.28;1.80;;;;;;;26.48;13.61;96553.91;6292375;28;20044;-73
2023/04/13 10:36:57;;;;;;;3.08;1.52;;;;;;;27.07;13.24;96547.63;6290104;28;20434;-75
2023/04/13 10:40:05;;;;;;;5.45;1.33;;;;;;;27.07;13.14;96543.06;6290123;28;20139;-74
2023/04/13 10:43:06;;;;;;;1.58;1.02;;;;;;;26.41;13.41;96543.09;6290235;28;20467;-73
2023/04/13 10:46:12;;;;;;;3.55;1.73;;;;;;;26.01;13.56;96523.34;6289794;28;20051;-74
2023/04/13 10:49:32;;;;;;;8.35;3.40;;;;;;;26.74;13.52;96529.63;6292461;28;20048;-73
2023/04/13 10:52:52;;;;;;;5.15;1.50;;;;;;;26.94;13.49;96523.34;6293646;28;20044;-75
2023/04/13 10:55:57;;;;;;;2.15;1.60;;;;;;;27.30;12.90;96530.97;6287895;28;20059;-74
2023/04/13 10:59:01;;;;;;;5.18;1.48;;;;;;;26.76;13.60;96516.75;6292491;28;20059;-74
2023/04/13 11:02:15;;;;;;;3.97;1.60;;;;;;;26.76;13.71;96519.44;6282853;28;20053;-74
2023/04/13 11:05:20;;;;;;;3.42;1.77;;;;;;;26.65;13.43;96520.09;6290200;28;20418;-74
2023/04/13 11:08:21;;;;;;;2.25;1.17;;;;;;;26.16;13.58;96510.53;6291275;28;20961;-74
2023/04/13 11:11:35;;;;;;;4.22;1.70;;;;;;;25.84;13.83;96502.16;6289796;28;20048;-76
2023/04/13 11:14:43;;;;;;;4.15;1.83;;;;;;;25.16;14.68;96507.50;6292634;28;20056;-74
2023/04/13 11:18:05;;;;;;;4.45;1.40;;;;;;;24.89;14.67;96495.78;6289789;28;20036;-74
2023/04/13 11:21:15;;;;;;;4.05;1.40;;;;;;;24.71;15.21;96492.75;6284155;28;20040;-75
2023/04/13 11:24:25;;;;;;;2.70;1.83;;;;;;;24.67;15.13;96486.94;6285431;28;20052;-73
2023/04/13 11:27:29;;;;;;;4.40;1.55;;;;;;;24.58;15.15;96480.88;6287687;28;20044;-76
2023/04/13 11:30:33;;;;;;;1.55;1.23;;;;;;;24.47;15.46;96475.22;6282820;28;20052;-75
2023/04/13 11:33:39;;;;;;;2.22;1.27;;;;;;;24.54;15.36;96476.94;6284470;28;20068;-75
2023/04/13 11:36:47;;;;;;;2.63;1.27;;;;;;;24.23;15.93;96468.38;6288578;28;20043;-75
2023/04/13 11:40:21;;;;;;;3.67;1.50;;;;;;;23.61;16.39;96468.03;6287411;28;20521;-74
2023/04/13 11:43:29;;;;;;;1.98;1.20;;;;;;;23.06;16.87;96456.88;6288275;28;20690;-74
2023/04/13 11:46:37;;;;;;;3.33;1.02;;;;;;;22.88;16.92;96452.91;6291662;28;20040;-74
2023/04/13 11:49:46;;;;;;;2.65;1.60;;;;;;;22.80;17.34;96468.06;6292247;28;20105;-74
2023/04/13 11:52:55;;;;;;;3.97;1.10;;;;;;;22.51;17.53;96452.00;6292886;28;20044;-75
2023/04/13 11:55:59;;;;;;;1.95;1.23;;;;;;;22.15;17.85;96452.66;6289533;28;20044;-73
2023/04/13 11:59:07;;;;;;;4.20;1.52;;;;;;;21.93;18.21;96451.69;6290575;28;20057;-74
2023/04/13 12:02:13;;;;;;;4.28;1.20;;;;;;;21.86;18.29;96454.25;6288834;28;20040;-77
2023/04/13 12:05:25;;;;;;;1.90;1.27;;;;;;;22.00;18.26;96435.72;6285024;28;20049;-72
2023/04/13 12:08:28;;;;;;;2.45;1.38;;;;;;;22.05;18.38;96431.50;6279939;28;20159;-72
2023/04/13 12:11:43;;;;;;;3.38;1.48;;;;;;;21.90;18.07;96442.16;6289442;28;20166;-72
2023/04/13 12:14:58;;;;;;;2.80;1.30;;;;;;;21.83;18.04;96438.53;6283273;28;20083;-72
2023/04/13 12:18:01;;;;;;;2.72;0.93;;;;;;;21.78;18.52;96430.22;6290774;28;20048;-72
2023/04/13 12:21:03;;;;;;;4.15;1.70;;;;;;;21.79;18.38;96437.22;6291489;28;20135;-73
2023/04/13 12:24:08;;;;;;;1.17;0.90;;;;;;;21.56;18.78;96420.34;6289121;28;20451;-73
2023/04/13 12:27:10;;;;;;;3.72;1.00;;;;;;;21.46;18.81;96421.44;6286174;28;20056;-72
2023/04/13 12:30:19;;;;;;;4.03;0.93;;;;;;;21.63;18.51;96415.97;6291895;28;20051;-73
2023/04/13 12:33:26;;;;;;;2.42;1.08;;;;;;;21.85;18.44;96423.09;6291175;28;20206;-73
2023/04/13 12:36:32;;;;;;;2.10;1.00;;;;;;;21.59;18.65;96409.28;6287677;28;20090;-72
2023/04/13 12:39:37;;;;;;;3.22;1.10;;;;;;;21.35;19.02;96413.78;6281104;28;20148;-73
2023/04/13 12:42:48;;;;;;;3.88;1.20;;;;;;;21.28;18.76;96399.44;6286360;28;20037;-72
2023/04/13 12:45:50;;;;;;;3.30;1.77;;;;;;;21.21;18.60;96391.28;6282927;28;20067;-74
2023/04/13 12:48:52;;;;;;;4.95;2.28;;;;;;;21.20;18.74;96395.00;6289479;28;20059;-73
2023/04/13 12:51:55;;;;;;;2.88;0.95;;;;;;;21.18;18.96;96380.13;6290715;28;20437;-72
2023/04/13 12:55:02;;;;;;;5.50;1.00;;;;;;;21.17;18.47;96389.16;6289928;28;20513;-72
2023/04/13 12:58:10;;;;;;;4.10;1.23;;;;;;;21.10;18.80;96383.69;6287084;28;20056;-73
2023/04/13 13:01:14;;;;;;;1.92;1.25;;;;;;;21.04;18.95;96385.22;6291370;28;20045;-74
2023/04/13 13:04:21;;;;;;;10.10;3.65;;;;;;;21.11;18.51;96395.22;6286367;28;20040;-75
2023/04/13 13:07:27;;;;;;;10.20;2.95;;;;;;;20.99;19.08;96392.94;6287654;28;20052;-73
2023/04/13 13:10:29;;;;;;;5.18;1.70;;;;;;;20.81;18.96;96389.72;6287061;28;20063;-73
2023/04/13 13:13:33;;;;;;;4.55;1.65;;;;;;;20.58;19.03;96385.13;6293754;28;20130;-74
2023/04/13 13:16:34;;;;;;;3.63;1.40;;;;;;;20.50;19.19;96382.47;6294852;28;20502;-74
2023/04/13 13:19:40;;;;;;;3.20;1.50;;;;;;;20.46;19.57;96386.47;6292032;28;20047;-72
2023/04/13 13:22:46;;;;;;;1.63;1.30;;;;;;;20.36;19.25;96391.19;6290356;28;20056;-74
2023/04/13 13:26:00;;;;;;;4.18;1.23;;;;;;;20.14;19.39;96380.22;6293185;28;20045;-73
2023/04/13 13:29:01;;;;;;;5.22;1.38;;;;;;;19.98;19.67;96382.94;6288756;28;20044;-72
2023/04/13 13:32:06;;;;;;;2.53;1.27;;;;;;;19.87;19.79;96380.63;6285823;28;20087;-73
2023/04/13 13:35:09;;;;;;;5.97;1.67;;;;;;;19.84;19.65;96378.28;6294615;28;20045;-73
2023/04/13 13:38:15;;;;;;;2.90;1.00;;;;;;;19.73;19.68;96364.31;6295633;28;20044;-72
2023/04/13 13:41:27;;;;;;;2.42;1.00;;;;;;;19.65;19.67;96361.66;6284844;28;20089;-72
2023/04/13 13:44:29;;;;;;;2.72;1.15;;;;;;;19.66;20.21;96363.31;6286092;28;20045;-72
2023/04/13 13:47:36;;;;;;;4.82;0.80;;;;;;;19.60;20.12;96358.63;6292818;28;20045;-73
2023/04/13 13:50:40;;;;;;;3.70;1.23;;;;;;;19.47;20.37;96336.94;6292759;28;20067;-73
2023/04/13 13:53:45;;;;;;;4.45;1.67;;;;;;;19.43;20.60;96351.63;6279760;28;20045;-72
2023/04/13 13:56:46;;;;;;;5.28;2.90;;;;;;;19.38;20.49;96359.28;6294587;28;20044;-72
2023/04/13 13:59:50;;;;;;;4.90;3.42;;;;;;;19.19;20.80;96347.97;6292424;28;20556;-72
2023/04/13 14:02:52;;;;;;;4.40;1.88;;;;;;;19.01;20.76;96337.44;6292221;28;20048;-72
2023/04/13 14:05:58;;;;;;;6.65;1.98;;;;;;;18.90;21.08;96344.91;6289548;28;20071;-73
2023/04/13 14:09:11;;;;;;;4.82;1.67;;;;;;;18.68;21.49;96331.16;6279577;28;20909;-74
2023/04/13 14:12:23;;;;;;;6.32;1.67;;;;;;;18.51;21.72;96335.66;6284843;28;20178;-71
2023/04/13 14:15:27;;;;;;;6.28;1.55;;;;;;;18.42;21.97;96335.75;6288824;28;20052;-71
2023/04/13 14:18:31;;;;;;;3.17;1.42;;;;;;;18.19;22.40;96339.00;6289185;28;20045;-69
2023/04/13 14:21:35;;;;;;;4.32;1.67;;;;;;;18.07;22.37;96338.47;6290675;28;20040;-70
2023/04/13 14:24:39;;;;;;;8.02;1.88;;;;;;;17.83;22.84;96331.16;6287733;28;20411;-69
2023/04/13 14:27:46;;;;;;;7.93;2.40;;;;;;;17.68;23.07;96338.03;6287540;28;20044;-70
2023/04/13 14:30:50;;;;;;;5.65;2.45;;;;;;;17.59;23.17;96334.50;6290231;28;20040;-69
2023/04/13 14:33:57;;;;;;;11.00;4.07;;;;;;;17.55;23.30;96337.59;6292447;28;20491;-70
2023/04/13 14:37:06;;;;;;;11.60;4.47;;;;;;;17.32;23.69;96332.78;6288776;28;20517;-70
2023/04/13 14:40:19;;;;;;;14.25;4.03;;;;;;;17.17;23.85;96329.84;6287953;28;20036;-71